createdAt,value
2019-03-06T00:02:10.201Z,5.62
2019-03-06T00:04:40.249Z,5.61
2019-03-06T00:07:10.475Z,5.45
2019-03-06T00:09:40.462Z,5.48
2019-03-06T00:12:10.440Z,5.54
2019-03-06T00:14:40.794Z,5.49
2019-03-06T00:17:10.781Z,5.56
2019-03-06T00:19:40.801Z,5.66
2019-03-06T00:22:10.708Z,5.51
2019-03-06T00:24:40.613Z,5.72
2019-03-06T00:27:10.510Z,5.74
2019-03-06T00:29:40.695Z,6.11
2019-03-06T00:32:10.551Z,6.09
2019-03-06T00:34:40.466Z,5.97
2019-03-06T00:37:10.360Z,5.94
2019-03-06T00:39:55.204Z,5.86
2019-03-06T00:42:25.234Z,5.74
2019-03-06T00:44:55.167Z,5.53
2019-03-06T00:47:25.494Z,5.43
2019-03-06T00:49:55.596Z,5.33
2019-03-06T00:52:25.509Z,5.33
2019-03-06T00:54:55.651Z,5.23
2019-03-06T00:57:25.535Z,5.36
2019-03-06T00:59:55.479Z,5.45
2019-03-06T01:02:25.462Z,5.40
2019-03-06T01:04:55.312Z,5.27
2019-03-06T01:07:25.361Z,5.16
2019-03-06T01:09:55.610Z,5.00
2019-03-06T01:12:25.495Z,5.10
2019-03-06T01:14:55.535Z,5.14
2019-03-06T01:17:25.502Z,5.27
2019-03-06T01:19:55.488Z,5.20
2019-03-06T01:22:25.538Z,4.95
2019-03-06T01:24:55.452Z,4.83
2019-03-06T01:27:25.398Z,4.80
2019-03-06T01:29:55.317Z,4.95
2019-03-06T01:32:25.639Z,4.98
2019-03-06T01:35:16.269Z,4.92
2019-03-06T01:38:10.912Z,4.59
2019-03-06T01:40:46.609Z,4.44
2019-03-06T01:43:40.014Z,4.38
2019-03-06T01:46:09.990Z,4.39
2019-03-06T01:48:39.928Z,4.57
2019-03-06T01:51:11.675Z,4.57
2019-03-06T01:53:41.722Z,4.32
2019-03-06T01:56:11.973Z,4.36
2019-03-06T01:58:41.906Z,4.53
2019-03-06T02:01:11.888Z,4.55
2019-03-06T02:03:41.933Z,4.43
2019-03-06T02:06:11.862Z,4.56
2019-03-06T02:08:41.869Z,4.67
2019-03-06T02:11:15.006Z,4.76
2019-03-06T02:13:45.113Z,4.76
2019-03-06T02:16:15.070Z,4.61
2019-03-06T02:18:45.362Z,4.75
2019-03-06T02:21:16.382Z,4.73
2019-03-06T02:23:46.538Z,4.79
2019-03-06T02:26:16.479Z,4.75
2019-03-06T02:28:46.453Z,4.65
2019-03-06T02:31:16.455Z,4.66
2019-03-06T02:33:46.432Z,4.59
2019-03-06T02:36:16.353Z,4.62
2019-03-06T02:38:46.229Z,4.75
2019-03-06T02:41:16.195Z,4.67
2019-03-06T02:43:46.164Z,4.76
2019-03-06T02:46:16.108Z,4.77
2019-03-06T02:48:46.197Z,4.76
2019-03-06T02:51:16.081Z,4.66
2019-03-06T02:53:46.097Z,4.75
2019-03-06T02:56:16.022Z,4.71
2019-03-06T02:58:57.588Z,4.93
2019-03-06T03:01:47.809Z,5.05
2019-03-06T03:04:25.191Z,4.92
2019-03-06T03:07:01.026Z,4.84
2019-03-06T03:09:31.020Z,4.70
2019-03-06T03:12:00.937Z,4.79
2019-03-06T03:14:30.893Z,4.76
2019-03-06T03:17:00.898Z,4.85
2019-03-06T03:19:30.913Z,4.77
2019-03-06T03:22:00.909Z,4.81
2019-03-06T03:24:30.847Z,4.85
2019-03-06T03:27:00.669Z,4.78
2019-03-06T03:29:30.619Z,4.71
2019-03-06T03:32:00.537Z,4.69
2019-03-06T03:34:30.453Z,4.67
2019-03-06T03:37:00.398Z,4.61
2019-03-06T03:39:30.232Z,4.67
2019-03-06T03:42:00.567Z,4.58
2019-03-06T03:44:30.563Z,4.51
2019-03-06T03:47:00.936Z,4.50
2019-03-06T03:49:30.887Z,4.60
2019-03-06T03:52:00.842Z,4.59
2019-03-06T03:54:30.748Z,4.65
2019-03-06T03:57:00.714Z,4.70
2019-03-06T03:59:30.792Z,4.63
2019-03-06T04:02:00.805Z,4.52
2019-03-06T04:04:30.824Z,4.46
2019-03-06T04:07:00.893Z,4.55
2019-03-06T04:09:30.746Z,4.69
2019-03-06T04:12:01.049Z,4.83
2019-03-06T04:14:30.974Z,4.78
2019-03-06T04:17:00.902Z,4.84
2019-03-06T04:19:30.925Z,4.84
2019-03-06T04:22:00.894Z,4.90
2019-03-06T04:24:30.913Z,4.86
2019-03-06T04:27:00.756Z,4.73
2019-03-06T04:29:30.707Z,4.67
2019-03-06T04:32:00.555Z,4.50
2019-03-06T04:34:30.416Z,4.53
2019-03-06T04:37:00.234Z,4.60
2019-03-06T04:39:30.170Z,4.61
2019-03-06T04:41:59.990Z,4.40
2019-03-06T04:44:29.904Z,4.63
2019-03-06T04:46:59.763Z,4.68
2019-03-06T04:49:29.634Z,4.72
2019-03-06T04:51:59.558Z,4.66
2019-03-06T04:54:29.436Z,4.57
2019-03-06T04:56:59.274Z,4.49
2019-03-06T04:59:29.427Z,4.62
2019-03-06T05:01:59.407Z,4.63
2019-03-06T05:04:29.324Z,4.58
2019-03-06T05:06:59.192Z,4.51
2019-03-06T05:09:29.208Z,4.41
2019-03-06T05:11:59.311Z,4.41
2019-03-06T05:14:29.252Z,4.41
2019-03-06T05:17:18.065Z,4.60
2019-03-06T05:19:47.942Z,4.71
2019-03-06T05:22:17.777Z,4.48
2019-03-06T05:24:47.715Z,4.64
2019-03-06T05:27:17.672Z,4.64
2019-03-06T05:29:47.578Z,4.76
2019-03-06T05:32:31.933Z,4.66
2019-03-06T05:35:04.746Z,4.56
2019-03-06T05:38:04.632Z,4.58
2019-03-06T05:40:34.684Z,4.60
2019-03-06T05:43:04.747Z,4.49
2019-03-06T05:45:34.669Z,4.61
2019-03-06T05:48:05.166Z,4.53
2019-03-06T05:50:35.485Z,4.57
2019-03-06T05:53:05.583Z,4.65
2019-03-06T05:55:35.609Z,4.56
2019-03-06T05:58:05.640Z,4.48
2019-03-06T06:00:35.660Z,4.22
2019-03-06T06:03:05.723Z,4.13
2019-03-06T06:05:35.552Z,4.21
2019-03-06T06:08:05.602Z,4.15
2019-03-06T06:10:35.778Z,4.34
2019-03-06T06:13:05.818Z,4.55
2019-03-06T06:15:35.710Z,4.82
2019-03-06T06:18:05.837Z,5.19
2019-03-06T06:20:35.744Z,5.24
2019-03-06T06:23:10.732Z,5.26
2019-03-06T06:25:40.707Z,5.30
2019-03-06T06:28:10.737Z,5.06
2019-03-06T06:30:43.758Z,5.00
2019-03-06T06:33:13.783Z,4.95
2019-03-06T06:35:43.772Z,5.17
2019-03-06T06:38:13.647Z,5.30
2019-03-06T06:40:43.653Z,5.36
2019-03-06T06:43:13.548Z,5.56
2019-03-06T06:45:43.542Z,5.37
2019-03-06T06:48:18.278Z,5.09
2019-03-06T06:51:04.261Z,5.24
2019-03-06T06:53:59.647Z,5.02
2019-03-06T06:56:42.163Z,4.90
2019-03-06T06:59:22.763Z,4.85
2019-03-06T07:02:38.079Z,4.98
2019-03-06T07:05:24.461Z,5.10
2019-03-06T07:08:05.770Z,5.38
2019-03-06T07:10:43.312Z,5.61
2019-03-06T07:13:31.190Z,5.69
2019-03-06T07:16:29.256Z,5.81
2019-03-06T07:19:20.999Z,6.24
2019-03-06T07:22:15.765Z,6.85
2019-03-06T07:25:08.905Z,6.53
2019-03-06T07:27:55.748Z,6.56
2019-03-06T07:30:31.523Z,6.79
2019-03-06T07:33:19.179Z,6.79
2019-03-06T07:36:19.288Z,6.89
2019-03-06T07:38:52.966Z,6.52
2019-03-06T07:41:35.179Z,6.52
2019-03-06T07:44:30.083Z,7.02
2019-03-06T07:47:04.940Z,7.16
2019-03-06T07:49:49.513Z,7.10
2019-03-06T07:52:27.297Z,7.08
2019-03-06T07:55:31.330Z,7.15
2019-03-06T07:58:38.181Z,7.12
2019-03-06T08:01:16.835Z,7.32
2019-03-06T08:03:55.805Z,7.62
2019-03-06T08:06:26.150Z,7.90
2019-03-06T08:08:56.340Z,8.26
2019-03-06T08:11:37.919Z,8.29
2019-03-06T08:14:22.473Z,7.99
2019-03-06T08:20:10.044Z,7.65
2019-03-06T08:22:58.877Z,7.73
2019-03-06T08:25:36.270Z,7.97
2019-03-06T08:28:06.275Z,8.32
2019-03-06T08:30:39.076Z,8.57
2019-03-06T08:33:17.731Z,8.63
2019-03-06T08:35:40.791Z,8.41
2019-03-06T08:38:10.763Z,8.48
2019-03-06T08:40:40.785Z,8.74
2019-03-06T08:43:10.718Z,8.87
2019-03-06T08:46:18.192Z,9.11
2019-03-06T08:49:01.110Z,9.43
2019-03-06T08:51:49.363Z,9.41
2019-03-06T08:54:31.052Z,9.17
2019-03-06T08:57:16.991Z,9.15
2019-03-06T09:00:15.861Z,9.46
2019-03-06T09:02:55.733Z,10.03
2019-03-06T09:05:40.046Z,10.37
2019-03-06T09:08:30.302Z,10.41
2019-03-06T09:11:18.002Z,10.41
2019-03-06T09:14:05.447Z,10.24
2019-03-06T09:16:55.776Z,10.47
2019-03-06T09:19:39.544Z,10.56
2019-03-06T09:22:25.898Z,10.55
2019-03-06T09:25:11.306Z,10.85
2019-03-06T09:27:47.726Z,10.66
2019-03-06T09:30:31.638Z,10.82
2019-03-06T09:33:35.784Z,10.47
2019-03-06T09:36:13.787Z,10.53
2019-03-06T09:38:50.791Z,10.68
2019-03-06T09:41:30.582Z,11.10
2019-03-06T09:44:12.136Z,11.06
2019-03-06T09:47:04.105Z,11.00
2019-03-06T09:49:54.176Z,11.41
2019-03-06T09:52:42.727Z,11.48
2019-03-06T09:55:40.495Z,11.48
2019-03-06T09:58:31.684Z,11.27
2019-03-06T10:01:29.727Z,11.02
2019-03-06T10:04:18.745Z,11.16
2019-03-06T10:07:10.744Z,11.35
2019-03-06T10:09:59.305Z,11.50
2019-03-06T10:12:47.751Z,11.75
2019-03-06T10:15:37.028Z,11.77
2019-03-06T10:18:26.825Z,11.75
2019-03-06T10:20:56.586Z,11.98
2019-03-06T10:23:26.611Z,12.22
2019-03-06T10:25:56.637Z,12.34
2019-03-06T10:28:27.943Z,12.49
2019-03-06T10:31:02.485Z,12.57
2019-03-06T10:33:29.840Z,12.53
2019-03-06T10:36:03.060Z,12.49
2019-03-06T10:38:33.073Z,12.55
2019-03-06T10:41:03.032Z,12.70
2019-03-06T10:43:32.942Z,12.81
2019-03-06T10:46:02.897Z,12.79
2019-03-06T10:48:32.931Z,13.12
2019-03-06T10:51:03.241Z,13.44
2019-03-06T10:53:41.110Z,13.71
2019-03-06T10:56:05.478Z,13.53
2019-03-06T10:58:35.455Z,13.76
2019-03-06T11:01:06.350Z,14.24
2019-03-06T11:03:39.350Z,14.52
2019-03-06T11:06:09.745Z,14.61
2019-03-06T11:08:39.811Z,14.17
2019-03-06T11:11:10.310Z,14.50
2019-03-06T11:13:40.598Z,14.32
2019-03-06T11:16:11.915Z,14.24
2019-03-06T11:18:42.095Z,14.12
2019-03-06T11:21:12.123Z,14.36
2019-03-06T11:23:42.122Z,14.53
2019-03-06T11:26:12.558Z,14.59
2019-03-06T11:28:42.567Z,14.87
2019-03-06T11:31:12.846Z,14.73
2019-03-06T11:33:43.459Z,15.06
2019-03-06T11:36:13.727Z,14.90
2019-03-06T11:38:44.386Z,15.03
2019-03-06T11:41:15.452Z,15.23
2019-03-06T11:43:45.490Z,15.73
2019-03-06T11:46:16.164Z,15.96
2019-03-06T11:48:46.198Z,15.76
2019-03-06T11:51:16.596Z,15.89
2019-03-06T11:53:46.597Z,15.35
2019-03-06T11:56:16.745Z,14.99
2019-03-06T11:58:47.500Z,15.14
2019-03-06T12:01:21.242Z,15.19
2019-03-06T12:03:51.417Z,15.32
2019-03-06T12:06:21.469Z,15.13
2019-03-06T12:08:51.376Z,15.00
2019-03-06T12:11:21.523Z,15.12
2019-03-06T12:13:51.725Z,15.27
2019-03-06T12:16:21.861Z,14.91
2019-03-06T12:18:52.014Z,15.21
2019-03-06T12:21:21.998Z,15.17
2019-03-06T12:23:52.194Z,15.15
2019-03-06T12:26:22.127Z,14.81
2019-03-06T12:28:53.835Z,15.06
2019-03-06T12:31:24.809Z,15.00
2019-03-06T12:33:54.912Z,14.86
2019-03-06T12:36:24.906Z,14.88
2019-03-06T12:38:55.107Z,14.96
2019-03-06T12:41:25.126Z,15.13
2019-03-06T12:43:55.080Z,15.48
2019-03-06T12:46:27.742Z,15.66
2019-03-06T12:49:09.053Z,15.69
2019-03-06T12:51:39.313Z,16.01
2019-03-06T12:54:10.269Z,15.82
2019-03-06T12:56:40.300Z,15.96
2019-03-06T12:59:10.296Z,15.95
2019-03-06T13:01:41.133Z,15.84
2019-03-06T13:04:11.145Z,15.91
2019-03-06T13:06:41.066Z,15.93
2019-03-06T13:09:20.770Z,16.00
2019-03-06T13:11:51.068Z,15.94
2019-03-06T13:14:20.988Z,15.60
2019-03-06T13:16:51.323Z,15.90
2019-03-06T13:19:21.349Z,15.89
2019-03-06T13:22:11.054Z,15.81
2019-03-06T13:24:35.034Z,15.86
2019-03-06T13:27:05.091Z,15.90
2019-03-06T13:29:34.959Z,15.84
2019-03-06T13:32:11.765Z,15.81
2019-03-06T13:34:50.156Z,15.84
2019-03-06T13:37:13.115Z,15.69
2019-03-06T13:39:42.940Z,15.69
2019-03-06T13:42:12.894Z,15.88
2019-03-06T13:44:42.840Z,15.59
2019-03-06T13:47:12.888Z,15.31
2019-03-06T13:49:43.854Z,15.42
2019-03-06T13:52:14.023Z,15.23
2019-03-06T13:54:43.958Z,15.00
2019-03-06T13:57:14.548Z,15.18
2019-03-06T13:59:44.439Z,15.45
2019-03-06T14:02:14.379Z,15.37
2019-03-06T14:04:44.350Z,15.59
2019-03-06T14:07:14.485Z,15.72
2019-03-06T14:09:44.609Z,15.88
2019-03-06T14:12:14.606Z,15.36
2019-03-06T14:14:44.532Z,15.60
2019-03-06T14:17:14.512Z,15.52
2019-03-06T14:19:44.803Z,15.68
2019-03-06T14:22:14.717Z,15.66
2019-03-06T14:24:44.622Z,15.42
2019-03-06T14:27:14.502Z,15.28
2019-03-06T14:29:44.376Z,15.24
2019-03-06T14:32:15.676Z,15.20
2019-03-06T14:34:45.726Z,15.12
2019-03-06T14:37:15.724Z,14.87
2019-03-06T14:39:45.875Z,15.12
2019-03-06T14:42:15.887Z,14.78
2019-03-06T14:44:48.093Z,14.72
2019-03-06T14:47:19.337Z,14.92
2019-03-06T14:49:50.411Z,15.06
2019-03-06T14:52:20.401Z,15.22
2019-03-06T14:54:50.271Z,14.98
2019-03-06T14:57:20.316Z,15.03
2019-03-06T14:59:50.294Z,14.82
2019-03-06T15:02:20.377Z,14.63
2019-03-06T15:04:50.366Z,14.45
2019-03-06T15:07:20.419Z,14.36
2019-03-06T15:09:50.341Z,14.39
2019-03-06T15:12:20.230Z,14.50
2019-03-06T15:14:50.331Z,14.55
2019-03-06T15:17:20.292Z,14.57
2019-03-06T15:19:50.314Z,14.49
2019-03-06T15:22:20.355Z,14.35
2019-03-06T15:24:50.347Z,14.26
2019-03-06T15:27:20.648Z,14.11
2019-03-06T15:29:50.632Z,14.09
2019-03-06T15:32:20.511Z,14.05
2019-03-06T15:34:50.511Z,13.93
2019-03-06T15:37:20.466Z,13.89
2019-03-06T15:39:50.554Z,13.85
2019-03-06T15:42:20.490Z,13.78
2019-03-06T15:44:50.511Z,13.84
2019-03-06T15:47:20.548Z,13.81
2019-03-06T15:49:50.543Z,13.79
2019-03-06T15:52:20.528Z,13.65
2019-03-06T15:54:52.639Z,13.51
2019-03-06T15:57:22.425Z,13.30
2019-03-06T15:59:52.357Z,13.20
2019-03-06T16:02:22.416Z,13.12
2019-03-06T16:04:52.408Z,12.96
2019-03-06T16:07:22.748Z,12.83
2019-03-06T16:09:52.781Z,12.77
2019-03-06T16:12:22.826Z,12.68
2019-03-06T16:14:52.982Z,12.59
2019-03-06T16:17:22.914Z,12.49
2019-03-06T16:19:52.843Z,12.40
2019-03-06T16:22:22.838Z,12.33
2019-03-06T16:24:52.968Z,12.29
2019-03-06T16:27:22.976Z,12.22
2019-03-06T16:29:52.958Z,12.12
2019-03-06T16:32:22.960Z,12.02
2019-03-06T16:34:52.925Z,11.90
2019-03-06T16:37:22.865Z,11.82
2019-03-06T16:39:52.912Z,11.71
2019-03-06T16:42:22.939Z,11.61
2019-03-06T16:44:52.926Z,11.52
2019-03-06T16:47:24.219Z,11.40
2019-03-06T16:49:54.136Z,11.25
2019-03-06T16:52:24.178Z,11.15
2019-03-06T16:54:55.213Z,11.06
2019-03-06T16:57:25.253Z,10.96
2019-03-06T16:59:55.492Z,10.88
2019-03-06T17:02:26.476Z,10.84
2019-03-06T17:04:56.674Z,10.79
2019-03-06T17:07:26.831Z,10.74
2019-03-06T17:09:56.853Z,10.73
2019-03-06T17:12:27.176Z,10.69
2019-03-06T17:14:57.367Z,10.66
2019-03-06T17:17:27.314Z,10.59
2019-03-06T17:19:57.326Z,10.56
2019-03-06T17:22:27.478Z,10.52
2019-03-06T17:24:57.468Z,10.50
2019-03-06T17:27:27.680Z,10.45
2019-03-06T17:29:57.626Z,10.39
2019-03-06T17:32:27.659Z,10.38
2019-03-06T17:34:57.989Z,10.35
2019-03-06T17:37:27.904Z,10.28
2019-03-06T17:39:58.280Z,10.21
2019-03-06T17:42:28.221Z,10.11
2019-03-06T17:44:58.239Z,10.05
2019-03-06T17:47:28.202Z,10.00
2019-03-06T17:49:58.222Z,9.95
2019-03-06T17:52:28.453Z,9.90
2019-03-06T17:54:58.446Z,9.84
2019-03-06T17:57:28.429Z,9.79
2019-03-06T17:59:58.317Z,9.81
2019-03-06T18:02:28.283Z,9.77
2019-03-06T18:04:58.354Z,9.68
2019-03-06T18:07:28.664Z,9.63
2019-03-06T18:09:58.621Z,9.59
2019-03-06T18:12:29.089Z,9.54
2019-03-06T18:15:00.200Z,9.51
2019-03-06T18:17:30.390Z,9.48
2019-03-06T18:20:00.601Z,9.45
2019-03-06T18:22:30.572Z,9.46
2019-03-06T18:25:00.538Z,9.43
2019-03-06T18:27:31.698Z,9.39
2019-03-06T18:30:01.686Z,9.31
2019-03-06T18:32:32.916Z,9.22
2019-03-06T18:35:03.198Z,9.14
2019-03-06T18:37:33.320Z,9.12
2019-03-06T18:40:03.330Z,9.05
2019-03-06T18:42:33.432Z,8.98
2019-03-06T18:45:04.923Z,8.93
2019-03-06T18:47:35.025Z,8.86
2019-03-06T18:50:05.893Z,8.84
2019-03-06T18:52:35.941Z,8.80
2019-03-06T18:55:06.738Z,8.77
2019-03-06T18:57:36.756Z,8.69
2019-03-06T19:00:08.842Z,8.65
2019-03-06T19:02:38.866Z,8.66
2019-03-06T19:05:09.009Z,8.65
2019-03-06T19:07:40.127Z,8.62
2019-03-06T19:10:11.357Z,8.62
2019-03-06T19:12:41.453Z,8.60
2019-03-06T19:15:13.728Z,8.56
2019-03-06T19:17:43.871Z,8.52
2019-03-06T19:20:15.517Z,8.48
2019-03-06T19:22:45.964Z,8.43
2019-03-06T19:25:16.372Z,8.38
2019-03-06T19:27:46.616Z,8.36
2019-03-06T19:30:20.959Z,8.36
2019-03-06T19:32:50.981Z,8.39
2019-03-06T19:35:21.617Z,8.41
2019-03-06T19:37:51.685Z,8.41
2019-03-06T19:40:22.890Z,8.45
2019-03-06T19:42:52.943Z,8.45
2019-03-06T19:45:22.949Z,8.50
2019-03-06T19:47:52.980Z,8.65
2019-03-06T19:50:25.294Z,8.69
2019-03-06T19:52:54.941Z,8.81
2019-03-06T19:55:25.467Z,8.97
2019-03-06T19:57:58.209Z,9.18
2019-03-06T20:00:29.566Z,9.37
2019-03-06T20:03:00.213Z,9.40
2019-03-06T20:05:34.555Z,9.44
2019-03-06T20:08:07.295Z,9.54
2019-03-06T20:10:37.762Z,9.70
2019-03-06T20:13:08.507Z,9.90
2019-03-06T20:15:39.848Z,10.13
2019-03-06T20:18:09.908Z,10.23
2019-03-06T20:20:40.189Z,10.40
2019-03-06T20:23:10.341Z,10.50
2019-03-06T20:25:40.313Z,10.58
2019-03-06T20:28:10.341Z,10.52
2019-03-06T20:30:40.362Z,10.47
2019-03-06T20:33:10.350Z,10.41
2019-03-06T20:35:40.598Z,10.34
2019-03-06T20:38:10.557Z,10.27
2019-03-06T20:40:40.590Z,10.22
2019-03-06T20:43:10.531Z,10.14
2019-03-06T20:45:40.475Z,10.09
2019-03-06T20:48:10.509Z,10.09
2019-03-06T20:50:40.709Z,10.07
2019-03-06T20:53:10.604Z,10.05
2019-03-06T20:55:40.530Z,9.97
2019-03-06T20:58:10.570Z,9.98
2019-03-06T21:00:40.565Z,10.02
2019-03-06T21:03:10.683Z,10.00
2019-03-06T21:05:40.604Z,9.97
2019-03-06T21:08:10.936Z,9.98
2019-03-06T21:10:41.015Z,10.06
2019-03-06T21:13:10.911Z,10.03
2019-03-06T21:15:40.910Z,10.01
2019-03-06T21:18:11.206Z,9.96
2019-03-06T21:20:41.608Z,9.88
2019-03-06T21:23:11.575Z,9.89
2019-03-06T21:25:41.556Z,9.88
2019-03-06T21:28:11.627Z,9.88
2019-03-06T21:30:41.844Z,9.85
2019-03-06T21:33:11.890Z,9.84
2019-03-06T21:35:41.861Z,9.82
2019-03-06T21:38:12.775Z,9.85
2019-03-06T21:40:42.655Z,9.82
2019-03-06T21:43:13.698Z,9.82
2019-03-06T21:45:43.771Z,9.74
2019-03-06T21:48:13.792Z,9.80
2019-03-06T21:50:43.825Z,9.75
2019-03-06T21:53:14.090Z,9.77
2019-03-06T21:55:44.068Z,9.87
2019-03-06T21:58:14.043Z,9.87
2019-03-06T22:00:44.005Z,9.89
2019-03-06T22:03:13.976Z,9.96
2019-03-06T22:05:45.553Z,9.96
2019-03-06T22:08:15.541Z,9.95
2019-03-06T22:10:45.499Z,9.99
2019-03-06T22:13:15.366Z,10.18
2019-03-06T22:15:45.324Z,10.34
2019-03-06T22:18:15.219Z,10.61
2019-03-06T22:20:45.467Z,10.56
2019-03-06T22:23:15.306Z,10.57
2019-03-06T22:25:45.362Z,10.58
2019-03-06T22:28:15.300Z,10.66
2019-03-06T22:30:45.283Z,10.80
2019-03-06T22:33:16.173Z,10.70
2019-03-06T22:35:46.030Z,10.74
2019-03-06T22:38:16.471Z,10.78
2019-03-06T22:40:46.374Z,10.94
2019-03-06T22:43:16.288Z,10.86
2019-03-06T22:45:46.326Z,10.90
2019-03-06T22:48:16.615Z,10.93
2019-03-06T22:50:46.614Z,10.92
2019-03-06T22:53:16.590Z,10.88
2019-03-06T22:55:46.625Z,11.01
2019-03-06T22:58:16.536Z,11.05
2019-03-06T23:01:06.353Z,11.01
2019-03-06T23:03:37.946Z,11.05
2019-03-06T23:06:08.773Z,11.12
2019-03-06T23:08:38.759Z,11.48
2019-03-06T23:11:09.251Z,11.56
2019-03-06T23:13:39.236Z,11.56
2019-03-06T23:16:09.206Z,11.49
2019-03-06T23:18:39.153Z,11.31
2019-03-06T23:21:09.160Z,11.05
2019-03-06T23:23:39.464Z,10.84
2019-03-06T23:26:09.490Z,10.79
2019-03-06T23:28:39.463Z,10.83
2019-03-06T23:31:09.596Z,10.73
2019-03-06T23:33:39.555Z,10.66
2019-03-06T23:36:09.518Z,10.65
2019-03-06T23:38:39.557Z,10.64
2019-03-06T23:41:09.456Z,10.60
2019-03-06T23:43:39.551Z,10.53
2019-03-06T23:46:11.613Z,10.53
2019-03-06T23:48:41.061Z,10.55
2019-03-06T23:51:34.550Z,10.64
2019-03-06T23:54:04.644Z,10.80
2019-03-06T23:56:34.642Z,11.03
2019-03-06T23:59:05.040Z,11.03
